sensor_id;sensor_type;location;lat;lon;timestamp;P1;durP1;ratioP1;P2;durP2;ratioP2
21458;SDS011;10891;49.350;19.386;2024-01-10T00:01:16;132.33;;;40.90;;
21458;SDS011;10891;49.350;19.386;2024-01-10T00:03:43;115.07;;;32.67;;
21458;SDS011;10891;49.350;19.386;2024-01-10T00:06:10;98.33;;;35.00;;
21458;SDS011;10891;49.350;19.386;2024-01-10T00:08:38;112.33;;;32.07;;
21458;SDS011;10891;49.350;19.386;2024-01-10T00:11:06;122.30;;;40.07;;
21458;SDS011;10891;49.350;19.386;2024-01-10T00:13:33;122.30;;;38.50;;
21458;SDS011;10891;49.350;19.386;2024-01-10T00:16:01;93.87;;;31.27;;
21458;SDS011;10891;49.350;19.386;2024-01-10T00:18:28;66.70;;;22.10;;
21458;SDS011;10891;49.350;19.386;2024-01-10T00:20:55;113.37;;;34.13;;
21458;SDS011;10891;49.350;19.386;2024-01-10T00:23:22;74.87;;;28.77;;
21458;SDS011;10891;49.350;19.386;2024-01-10T00:25:49;93.30;;;33.77;;
21458;SDS011;10891;49.350;19.386;2024-01-10T00:28:18;123.83;;;44.20;;
21458;SDS011;10891;49.350;19.386;2024-01-10T00:30:45;75.97;;;27.23;;
21458;SDS011;10891;49.350;19.386;2024-01-10T00:33:13;68.50;;;23.77;;
21458;SDS011;10891;49.350;19.386;2024-01-10T00:35:40;33.07;;;10.73;;
21458;SDS011;10891;49.350;19.386;2024-01-10T00:38:08;104.87;;;31.80;;
21458;SDS011;10891;49.350;19.386;2024-01-10T00:40:35;72.27;;;21.77;;
21458;SDS011;10891;49.350;19.386;2024-01-10T00:43:03;99.80;;;32.83;;
21458;SDS011;10891;49.350;19.386;2024-01-10T00:45:31;180.87;;;55.37;;
21458;SDS011;10891;49.350;19.386;2024-01-10T00:47:58;115.93;;;44.23;;
21458;SDS011;10891;49.350;19.386;2024-01-10T00:50:25;107.50;;;35.63;;
21458;SDS011;10891;49.350;19.386;2024-01-10T00:52:53;86.50;;;28.93;;
21458;SDS011;10891;49.350;19.386;2024-01-10T00:55:19;139.70;;;44.70;;
21458;SDS011;10891;49.350;19.386;2024-01-10T00:57:46;111.97;;;35.87;;
21458;SDS011;10891;49.350;19.386;2024-01-10T01:00:13;103.20;;;32.77;;
21458;SDS011;10891;49.350;19.386;2024-01-10T01:02:42;117.83;;;37.67;;
21458;SDS011;10891;49.350;19.386;2024-01-10T01:05:10;59.47;;;24.33;;
21458;SDS011;10891;49.350;19.386;2024-01-10T01:07:37;70.40;;;23.90;;
21458;SDS011;10891;49.350;19.386;2024-01-10T01:10:05;100.03;;;31.53;;
21458;SDS011;10891;49.350;19.386;2024-01-10T01:12:33;93.10;;;32.13;;
21458;SDS011;10891;49.350;19.386;2024-01-10T01:15:00;101.23;;;33.57;;
21458;SDS011;10891;49.350;19.386;2024-01-10T01:17:28;131.83;;;39.90;;
21458;SDS011;10891;49.350;19.386;2024-01-10T01:19:56;172.10;;;46.13;;
21458;SDS011;10891;49.350;19.386;2024-01-10T01:22:24;122.13;;;40.53;;
21458;SDS011;10891;49.350;19.386;2024-01-10T01:24:51;171.40;;;49.90;;
21458;SDS011;10891;49.350;19.386;2024-01-10T01:27:19;137.20;;;42.33;;
21458;SDS011;10891;49.350;19.386;2024-01-10T01:29:46;116.20;;;39.53;;
21458;SDS011;10891;49.350;19.386;2024-01-10T01:32:13;174.13;;;54.40;;
21458;SDS011;10891;49.350;19.386;2024-01-10T01:34:40;198.70;;;59.33;;
21458;SDS011;10891;49.350;19.386;2024-01-10T01:37:08;177.20;;;55.97;;
21458;SDS011;10891;49.350;19.386;2024-01-10T01:39:36;151.10;;;48.90;;
21458;SDS011;10891;49.350;19.386;2024-01-10T01:42:03;111.47;;;37.00;;
21458;SDS011;10891;49.350;19.386;2024-01-10T01:44:30;81.23;;;28.63;;
21458;SDS011;10891;49.350;19.386;2024-01-10T01:46:57;180.43;;;48.67;;
21458;SDS011;10891;49.350;19.386;2024-01-10T01:49:25;74.10;;;25.60;;
21458;SDS011;10891;49.350;19.386;2024-01-10T01:51:52;82.97;;;30.67;;
21458;SDS011;10891;49.350;19.386;2024-01-10T01:54:21;107.00;;;39.83;;
21458;SDS011;10891;49.350;19.386;2024-01-10T01:56:48;115.83;;;36.67;;
21458;SDS011;10891;49.350;19.386;2024-01-10T01:59:16;71.17;;;29.87;;
21458;SDS011;10891;49.350;19.386;2024-01-10T02:01:43;64.10;;;27.43;;
21458;SDS011;10891;49.350;19.386;2024-01-10T02:04:10;105.40;;;32.30;;
21458;SDS011;10891;49.350;19.386;2024-01-10T02:06:38;58.07;;;23.80;;
21458;SDS011;10891;49.350;19.386;2024-01-10T02:09:05;80.77;;;26.87;;
21458;SDS011;10891;49.350;19.386;2024-01-10T02:11:35;66.43;;;28.10;;
21458;SDS011;10891;49.350;19.386;2024-01-10T02:14:02;82.73;;;29.03;;
21458;SDS011;10891;49.350;19.386;2024-01-10T02:16:29;92.47;;;26.43;;
21458;SDS011;10891;49.350;19.386;2024-01-10T02:18:56;136.77;;;39.57;;
21458;SDS011;10891;49.350;19.386;2024-01-10T02:21:25;61.83;;;22.53;;
21458;SDS011;10891;49.350;19.386;2024-01-10T02:23:52;49.53;;;18.57;;
21458;SDS011;10891;49.350;19.386;2024-01-10T02:26:21;105.87;;;35.40;;
21458;SDS011;10891;49.350;19.386;2024-01-10T02:28:48;88.37;;;31.33;;
21458;SDS011;10891;49.350;19.386;2024-01-10T02:31:15;91.70;;;28.97;;
21458;SDS011;10891;49.350;19.386;2024-01-10T02:33:42;67.17;;;24.37;;
21458;SDS011;10891;49.350;19.386;2024-01-10T02:36:10;56.90;;;20.27;;
21458;SDS011;10891;49.350;19.386;2024-01-10T02:38:37;73.13;;;27.53;;
21458;SDS011;10891;49.350;19.386;2024-01-10T02:41:04;95.23;;;31.90;;
21458;SDS011;10891;49.350;19.386;2024-01-10T02:43:32;89.90;;;30.77;;
21458;SDS011;10891;49.350;19.386;2024-01-10T02:45:59;93.77;;;31.30;;
21458;SDS011;10891;49.350;19.386;2024-01-10T02:48:26;90.17;;;30.33;;
21458;SDS011;10891;49.350;19.386;2024-01-10T02:50:54;51.03;;;21.90;;
21458;SDS011;10891;49.350;19.386;2024-01-10T02:53:21;19.90;;;8.10;;
21458;SDS011;10891;49.350;19.386;2024-01-10T02:55:48;44.83;;;18.57;;
21458;SDS011;10891;49.350;19.386;2024-01-10T02:58:15;47.83;;;20.67;;
21458;SDS011;10891;49.350;19.386;2024-01-10T03:00:44;31.77;;;13.10;;
21458;SDS011;10891;49.350;19.386;2024-01-10T03:03:11;67.20;;;25.67;;
21458;SDS011;10891;49.350;19.386;2024-01-10T03:05:39;48.50;;;17.33;;
21458;SDS011;10891;49.350;19.386;2024-01-10T03:08:06;25.40;;;12.70;;
21458;SDS011;10891;49.350;19.386;2024-01-10T03:10:33;50.53;;;17.47;;
21458;SDS011;10891;49.350;19.386;2024-01-10T03:13:00;53.67;;;20.67;;
21458;SDS011;10891;49.350;19.386;2024-01-10T03:15:28;45.33;;;18.70;;
21458;SDS011;10891;49.350;19.386;2024-01-10T03:17:57;59.23;;;20.60;;
21458;SDS011;10891;49.350;19.386;2024-01-10T03:20:24;51.43;;;17.90;;
21458;SDS011;10891;49.350;19.386;2024-01-10T03:22:52;43.93;;;19.57;;
21458;SDS011;10891;49.350;19.386;2024-01-10T03:25:19;54.73;;;19.90;;
21458;SDS011;10891;49.350;19.386;2024-01-10T03:27:46;53.83;;;18.57;;
21458;SDS011;10891;49.350;19.386;2024-01-10T03:30:13;52.70;;;18.03;;
21458;SDS011;10891;49.350;19.386;2024-01-10T03:32:43;60.87;;;20.03;;
21458;SDS011;10891;49.350;19.386;2024-01-10T03:35:11;59.23;;;19.50;;
21458;SDS011;10891;49.350;19.386;2024-01-10T03:37:38;48.70;;;18.70;;
21458;SDS011;10891;49.350;19.386;2024-01-10T03:40:06;62.80;;;21.40;;
21458;SDS011;10891;49.350;19.386;2024-01-10T03:42:33;65.90;;;20.33;;
21458;SDS011;10891;49.350;19.386;2024-01-10T03:45:00;66.37;;;22.83;;
21458;SDS011;10891;49.350;19.386;2024-01-10T03:47:28;47.80;;;19.20;;
21458;SDS011;10891;49.350;19.386;2024-01-10T03:49:55;102.00;;;36.37;;
21458;SDS011;10891;49.350;19.386;2024-01-10T03:52:24;42.03;;;17.10;;
21458;SDS011;10891;49.350;19.386;2024-01-10T03:54:51;95.77;;;32.03;;
21458;SDS011;10891;49.350;19.386;2024-01-10T03:57:18;90.67;;;33.40;;
21458;SDS011;10891;49.350;19.386;2024-01-10T03:59:45;102.50;;;39.03;;
21458;SDS011;10891;49.350;19.386;2024-01-10T04:02:12;103.47;;;35.90;;
21458;SDS011;10891;49.350;19.386;2024-01-10T04:04:39;43.60;;;14.03;;
21458;SDS011;10891;49.350;19.386;2024-01-10T04:07:07;36.60;;;15.83;;
21458;SDS011;10891;49.350;19.386;2024-01-10T04:09:35;40.77;;;16.63;;
21458;SDS011;10891;49.350;19.386;2024-01-10T04:12:03;83.67;;;32.93;;
21458;SDS011;10891;49.350;19.386;2024-01-10T04:14:30;110.13;;;37.87;;
21458;SDS011;10891;49.350;19.386;2024-01-10T04:16:57;95.40;;;38.50;;
21458;SDS011;10891;49.350;19.386;2024-01-10T04:19:24;75.27;;;24.70;;
21458;SDS011;10891;49.350;19.386;2024-01-10T04:21:51;108.17;;;36.93;;
21458;SDS011;10891;49.350;19.386;2024-01-10T04:24:18;134.37;;;44.20;;
21458;SDS011;10891;49.350;19.386;2024-01-10T04:26:47;87.23;;;32.20;;
21458;SDS011;10891;49.350;19.386;2024-01-10T04:29:14;24.50;;;11.40;;
21458;SDS011;10891;49.350;19.386;2024-01-10T04:31:41;40.40;;;16.70;;
21458;SDS011;10891;49.350;19.386;2024-01-10T04:34:09;29.60;;;12.57;;
21458;SDS011;10891;49.350;19.386;2024-01-10T04:36:36;24.10;;;9.20;;
21458;SDS011;10891;49.350;19.386;2024-01-10T04:39:03;44.67;;;20.43;;
21458;SDS011;10891;49.350;19.386;2024-01-10T04:41:30;41.27;;;14.43;;
21458;SDS011;10891;49.350;19.386;2024-01-10T04:43:59;122.27;;;37.07;;
21458;SDS011;10891;49.350;19.386;2024-01-10T04:46:26;95.20;;;31.40;;
21458;SDS011;10891;49.350;19.386;2024-01-10T04:48:53;97.40;;;29.20;;
21458;SDS011;10891;49.350;19.386;2024-01-10T04:51:20;44.60;;;20.17;;
21458;SDS011;10891;49.350;19.386;2024-01-10T04:53:47;40.30;;;17.43;;
21458;SDS011;10891;49.350;19.386;2024-01-10T04:56:15;36.87;;;13.87;;
21458;SDS011;10891;49.350;19.386;2024-01-10T04:58:42;64.10;;;22.70;;
21458;SDS011;10891;49.350;19.386;2024-01-10T05:01:11;90.70;;;34.80;;
21458;SDS011;10891;49.350;19.386;2024-01-10T05:03:38;44.80;;;17.53;;
21458;SDS011;10891;49.350;19.386;2024-01-10T05:06:05;39.17;;;16.50;;
21458;SDS011;10891;49.350;19.386;2024-01-10T05:08:32;49.57;;;18.87;;
21458;SDS011;10891;49.350;19.386;2024-01-10T05:11:00;37.73;;;17.13;;
21458;SDS011;10891;49.350;19.386;2024-01-10T05:13:27;23.37;;;11.43;;
21458;SDS011;10891;49.350;19.386;2024-01-10T05:15:54;64.63;;;19.07;;
21458;SDS011;10891;49.350;19.386;2024-01-10T05:18:23;79.73;;;29.90;;
21458;SDS011;10891;49.350;19.386;2024-01-10T05:20:50;24.90;;;12.07;;
21458;SDS011;10891;49.350;19.386;2024-01-10T05:23:17;84.30;;;33.10;;
21458;SDS011;10891;49.350;19.386;2024-01-10T05:25:45;71.60;;;29.03;;
21458;SDS011;10891;49.350;19.386;2024-01-10T05:28:12;93.70;;;34.17;;
21458;SDS011;10891;49.350;19.386;2024-01-10T05:30:39;67.60;;;23.53;;
21458;SDS011;10891;49.350;19.386;2024-01-10T05:33:07;72.10;;;27.57;;
21458;SDS011;10891;49.350;19.386;2024-01-10T05:35:37;81.97;;;28.03;;
21458;SDS011;10891;49.350;19.386;2024-01-10T05:38:04;49.57;;;19.00;;
21458;SDS011;10891;49.350;19.386;2024-01-10T05:40:32;29.77;;;13.20;;
21458;SDS011;10891;49.350;19.386;2024-01-10T05:42:59;26.30;;;10.07;;
21458;SDS011;10891;49.350;19.386;2024-01-10T05:45:26;76.17;;;26.37;;
21458;SDS011;10891;49.350;19.386;2024-01-10T05:47:53;69.57;;;24.70;;
21458;SDS011;10891;49.350;19.386;2024-01-10T05:50:21;65.67;;;20.87;;
21458;SDS011;10891;49.350;19.386;2024-01-10T05:52:49;96.23;;;31.73;;
21458;SDS011;10891;49.350;19.386;2024-01-10T05:55:16;62.80;;;17.60;;
21458;SDS011;10891;49.350;19.386;2024-01-10T05:57:44;65.93;;;24.50;;
21458;SDS011;10891;49.350;19.386;2024-01-10T06:00:11;84.30;;;30.37;;
21458;SDS011;10891;49.350;19.386;2024-01-10T06:02:41;84.50;;;28.67;;
21458;SDS011;10891;49.350;19.386;2024-01-10T06:05:09;69.47;;;22.83;;
21458;SDS011;10891;49.350;19.386;2024-01-10T06:07:36;67.27;;;24.90;;
21458;SDS011;10891;49.350;19.386;2024-01-10T06:10:06;49.37;;;18.60;;
21458;SDS011;10891;49.350;19.386;2024-01-10T06:12:33;73.47;;;25.33;;
21458;SDS011;10891;49.350;19.386;2024-01-10T06:15:00;68.13;;;25.17;;
21458;SDS011;10891;49.350;19.386;2024-01-10T06:17:27;79.60;;;26.73;;
21458;SDS011;10891;49.350;19.386;2024-01-10T06:19:56;78.40;;;27.93;;
21458;SDS011;10891;49.350;19.386;2024-01-10T06:22:25;32.17;;;14.83;;
21458;SDS011;10891;49.350;19.386;2024-01-10T06:24:52;15.97;;;9.57;;
21458;SDS011;10891;49.350;19.386;2024-01-10T06:27:20;20.53;;;8.70;;
21458;SDS011;10891;49.350;19.386;2024-01-10T06:29:47;42.20;;;17.10;;
21458;SDS011;10891;49.350;19.386;2024-01-10T06:32:15;76.50;;;29.60;;
21458;SDS011;10891;49.350;19.386;2024-01-10T06:34:42;94.33;;;31.47;;
21458;SDS011;10891;49.350;19.386;2024-01-10T06:37:10;53.73;;;20.43;;
21458;SDS011;10891;49.350;19.386;2024-01-10T06:39:37;64.77;;;21.47;;
21458;SDS011;10891;49.350;19.386;2024-01-10T06:42:04;50.13;;;17.23;;
21458;SDS011;10891;49.350;19.386;2024-01-10T06:44:34;102.57;;;26.33;;
21458;SDS011;10891;49.350;19.386;2024-01-10T06:47:02;133.10;;;40.90;;
21458;SDS011;10891;49.350;19.386;2024-01-10T06:49:29;79.87;;;18.30;;
21458;SDS011;10891;49.350;19.386;2024-01-10T06:51:56;75.23;;;21.83;;
21458;SDS011;10891;49.350;19.386;2024-01-10T06:54:25;98.77;;;32.97;;
21458;SDS011;10891;49.350;19.386;2024-01-10T06:56:52;115.47;;;39.43;;
21458;SDS011;10891;49.350;19.386;2024-01-10T06:59:19;126.80;;;40.53;;
21458;SDS011;10891;49.350;19.386;2024-01-10T07:01:52;111.20;;;38.30;;
21458;SDS011;10891;49.350;19.386;2024-01-10T07:04:21;134.20;;;48.60;;
21458;SDS011;10891;49.350;19.386;2024-01-10T07:06:49;103.27;;;35.77;;
21458;SDS011;10891;49.350;19.386;2024-01-10T07:09:16;108.00;;;34.90;;
21458;SDS011;10891;49.350;19.386;2024-01-10T07:11:44;153.07;;;45.80;;
21458;SDS011;10891;49.350;19.386;2024-01-10T07:14:12;139.73;;;44.53;;
21458;SDS011;10891;49.350;19.386;2024-01-10T07:16:39;136.00;;;43.17;;
21458;SDS011;10891;49.350;19.386;2024-01-10T07:19:09;122.73;;;40.10;;
21458;SDS011;10891;49.350;19.386;2024-01-10T07:21:38;156.63;;;54.20;;
21458;SDS011;10891;49.350;19.386;2024-01-10T07:24:06;177.50;;;56.50;;
21458;SDS011;10891;49.350;19.386;2024-01-10T07:26:33;179.30;;;58.53;;
21458;SDS011;10891;49.350;19.386;2024-01-10T07:29:00;105.37;;;38.13;;
21458;SDS011;10891;49.350;19.386;2024-01-10T07:31:28;126.40;;;42.70;;
21458;SDS011;10891;49.350;19.386;2024-01-10T07:33:55;128.87;;;48.40;;
21458;SDS011;10891;49.350;19.386;2024-01-10T07:36:24;145.20;;;51.30;;
21458;SDS011;10891;49.350;19.386;2024-01-10T07:38:52;179.33;;;57.43;;
21458;SDS011;10891;49.350;19.386;2024-01-10T07:41:19;183.03;;;64.97;;
21458;SDS011;10891;49.350;19.386;2024-01-10T07:43:47;196.37;;;60.83;;
21458;SDS011;10891;49.350;19.386;2024-01-10T07:46:14;222.97;;;79.27;;
21458;SDS011;10891;49.350;19.386;2024-01-10T07:48:42;295.13;;;98.00;;
21458;SDS011;10891;49.350;19.386;2024-01-10T07:51:09;261.83;;;94.20;;
21458;SDS011;10891;49.350;19.386;2024-01-10T07:53:37;176.37;;;65.23;;
21458;SDS011;10891;49.350;19.386;2024-01-10T07:56:05;90.93;;;35.10;;
21458;SDS011;10891;49.350;19.386;2024-01-10T07:58:32;185.07;;;69.80;;
21458;SDS011;10891;49.350;19.386;2024-01-10T08:00:59;190.47;;;70.30;;
21458;SDS011;10891;49.350;19.386;2024-01-10T08:03:27;141.20;;;51.33;;
21458;SDS011;10891;49.350;19.386;2024-01-10T08:05:54;150.10;;;56.00;;
21458;SDS011;10891;49.350;19.386;2024-01-10T08:08:22;143.13;;;51.90;;
21458;SDS011;10891;49.350;19.386;2024-01-10T08:10:51;187.77;;;60.00;;
21458;SDS011;10891;49.350;19.386;2024-01-10T08:13:18;222.50;;;70.40;;
21458;SDS011;10891;49.350;19.386;2024-01-10T08:15:45;173.87;;;56.53;;
21458;SDS011;10891;49.350;19.386;2024-01-10T08:18:12;139.07;;;47.60;;
21458;SDS011;10891;49.350;19.386;2024-01-10T08:20:40;231.53;;;75.73;;
21458;SDS011;10891;49.350;19.386;2024-01-10T08:23:07;309.70;;;94.03;;
21458;SDS011;10891;49.350;19.386;2024-01-10T08:25:36;264.53;;;83.10;;
21458;SDS011;10891;49.350;19.386;2024-01-10T08:28:07;350.27;;;114.03;;
21458;SDS011;10891;49.350;19.386;2024-01-10T08:30:35;380.90;;;120.43;;
21458;SDS011;10891;49.350;19.386;2024-01-10T08:33:02;340.33;;;109.33;;
21458;SDS011;10891;49.350;19.386;2024-01-10T08:35:30;299.83;;;100.90;;
21458;SDS011;10891;49.350;19.386;2024-01-10T08:37:58;338.27;;;128.67;;
21458;SDS011;10891;49.350;19.386;2024-01-10T08:40:27;316.53;;;111.60;;
21458;SDS011;10891;49.350;19.386;2024-01-10T08:42:55;324.67;;;115.30;;
21458;SDS011;10891;49.350;19.386;2024-01-10T08:45:23;423.00;;;144.73;;
21458;SDS011;10891;49.350;19.386;2024-01-10T08:47:51;262.93;;;81.97;;
21458;SDS011;10891;49.350;19.386;2024-01-10T08:50:18;254.70;;;90.97;;
21458;SDS011;10891;49.350;19.386;2024-01-10T08:52:47;178.83;;;62.47;;
21458;SDS011;10891;49.350;19.386;2024-01-10T08:55:14;213.67;;;72.60;;
21458;SDS011;10891;49.350;19.386;2024-01-10T08:57:41;231.93;;;87.77;;
21458;SDS011;10891;49.350;19.386;2024-01-10T09:00:09;433.75;;;156.68;;
21458;SDS011;10891;49.350;19.386;2024-01-10T09:02:38;358.93;;;123.63;;
21458;SDS011;10891;49.350;19.386;2024-01-10T09:05:06;279.87;;;90.60;;
21458;SDS011;10891;49.350;19.386;2024-01-10T09:07:35;292.50;;;92.97;;
21458;SDS011;10891;49.350;19.386;2024-01-10T09:10:03;414.27;;;150.30;;
21458;SDS011;10891;49.350;19.386;2024-01-10T09:12:32;172.03;;;62.00;;
21458;SDS011;10891;49.350;19.386;2024-01-10T09:15:00;196.57;;;67.07;;
21458;SDS011;10891;49.350;19.386;2024-01-10T09:17:27;272.13;;;108.30;;
21458;SDS011;10891;49.350;19.386;2024-01-10T09:19:56;221.93;;;79.37;;
21458;SDS011;10891;49.350;19.386;2024-01-10T09:22:23;318.33;;;113.23;;
21458;SDS011;10891;49.350;19.386;2024-01-10T09:24:51;301.93;;;104.23;;
21458;SDS011;10891;49.350;19.386;2024-01-10T09:27:18;328.20;;;126.27;;
21458;SDS011;10891;49.350;19.386;2024-01-10T09:29:45;306.63;;;113.20;;
21458;SDS011;10891;49.350;19.386;2024-01-10T09:32:12;296.20;;;109.20;;
21458;SDS011;10891;49.350;19.386;2024-01-10T09:34:39;345.90;;;127.57;;
21458;SDS011;10891;49.350;19.386;2024-01-10T09:37:08;348.37;;;125.70;;
21458;SDS011;10891;49.350;19.386;2024-01-10T09:39:35;327.67;;;131.83;;
21458;SDS011;10891;49.350;19.386;2024-01-10T09:42:02;284.20;;;110.97;;
21458;SDS011;10891;49.350;19.386;2024-01-10T09:44:29;279.37;;;105.20;;
21458;SDS011;10891;49.350;19.386;2024-01-10T09:46:56;282.77;;;107.47;;
21458;SDS011;10891;49.350;19.386;2024-01-10T09:49:24;227.47;;;82.60;;
21458;SDS011;10891;49.350;19.386;2024-01-10T09:51:53;195.07;;;76.30;;
21458;SDS011;10891;49.350;19.386;2024-01-10T09:54:22;177.97;;;64.87;;
21458;SDS011;10891;49.350;19.386;2024-01-10T09:56:51;145.53;;;56.23;;
21458;SDS011;10891;49.350;19.386;2024-01-10T09:59:20;144.67;;;55.47;;
21458;SDS011;10891;49.350;19.386;2024-01-10T10:01:48;161.57;;;57.77;;
21458;SDS011;10891;49.350;19.386;2024-01-10T10:04:15;141.57;;;52.47;;
21458;SDS011;10891;49.350;19.386;2024-01-10T10:06:43;117.60;;;45.23;;
21458;SDS011;10891;49.350;19.386;2024-01-10T10:09:11;91.80;;;36.77;;
21458;SDS011;10891;49.350;19.386;2024-01-10T10:11:40;111.00;;;42.30;;
21458;SDS011;10891;49.350;19.386;2024-01-10T10:14:13;99.67;;;37.93;;
21458;SDS011;10891;49.350;19.386;2024-01-10T10:16:40;89.90;;;35.40;;
21458;SDS011;10891;49.350;19.386;2024-01-10T10:19:08;60.00;;;25.37;;
21458;SDS011;10891;49.350;19.386;2024-01-10T10:21:36;50.60;;;19.83;;
21458;SDS011;10891;49.350;19.386;2024-01-10T10:24:04;59.30;;;23.83;;
21458;SDS011;10891;49.350;19.386;2024-01-10T10:26:32;59.50;;;25.20;;
21458;SDS011;10891;49.350;19.386;2024-01-10T10:29:01;51.73;;;20.03;;
21458;SDS011;10891;49.350;19.386;2024-01-10T10:31:29;41.50;;;17.93;;
21458;SDS011;10891;49.350;19.386;2024-01-10T10:33:57;25.17;;;11.73;;
21458;SDS011;10891;49.350;19.386;2024-01-10T10:36:26;27.63;;;12.50;;
21458;SDS011;10891;49.350;19.386;2024-01-10T10:38:53;38.93;;;16.43;;
21458;SDS011;10891;49.350;19.386;2024-01-10T10:41:20;40.00;;;19.20;;
21458;SDS011;10891;49.350;19.386;2024-01-10T10:43:48;67.00;;;33.57;;
21458;SDS011;10891;49.350;19.386;2024-01-10T10:46:17;86.27;;;39.40;;
21458;SDS011;10891;49.350;19.386;2024-01-10T10:48:47;75.33;;;30.50;;
21458;SDS011;10891;49.350;19.386;2024-01-10T10:51:16;103.00;;;43.03;;
21458;SDS011;10891;49.350;19.386;2024-01-10T10:53:44;127.27;;;50.83;;
21458;SDS011;10891;49.350;19.386;2024-01-10T10:56:12;129.03;;;50.03;;
21458;SDS011;10891;49.350;19.386;2024-01-10T10:58:40;136.97;;;50.37;;
21458;SDS011;10891;49.350;19.386;2024-01-10T11:01:08;162.50;;;63.60;;
21458;SDS011;10891;49.350;19.386;2024-01-10T11:03:37;174.83;;;64.97;;
21458;SDS011;10891;49.350;19.386;2024-01-10T11:06:05;183.73;;;74.27;;
21458;SDS011;10891;49.350;19.386;2024-01-10T11:08:34;194.10;;;74.73;;
21458;SDS011;10891;49.350;19.386;2024-01-10T11:11:02;182.17;;;71.17;;
21458;SDS011;10891;49.350;19.386;2024-01-10T11:13:37;186.83;;;81.23;;
21458;SDS011;10891;49.350;19.386;2024-01-10T11:16:17;215.07;;;81.60;;
21458;SDS011;10891;49.350;19.386;2024-01-10T11:18:58;169.20;;;68.83;;
21458;SDS011;10891;49.350;19.386;2024-01-10T11:21:29;146.93;;;59.67;;
21458;SDS011;10891;49.350;19.386;2024-01-10T11:24:00;157.97;;;61.80;;
21458;SDS011;10891;49.350;19.386;2024-01-10T11:26:28;197.60;;;69.37;;
21458;SDS011;10891;49.350;19.386;2024-01-10T11:28:56;172.50;;;71.17;;
21458;SDS011;10891;49.350;19.386;2024-01-10T11:31:28;171.30;;;68.27;;
21458;SDS011;10891;49.350;19.386;2024-01-10T11:33:57;180.97;;;69.00;;
21458;SDS011;10891;49.350;19.386;2024-01-10T11:36:25;166.53;;;63.87;;
21458;SDS011;10891;49.350;19.386;2024-01-10T11:38:57;185.57;;;74.67;;
21458;SDS011;10891;49.350;19.386;2024-01-10T11:41:27;182.30;;;70.83;;
21458;SDS011;10891;49.350;19.386;2024-01-10T11:46:43;196.87;;;78.93;;
21458;SDS011;10891;49.350;19.386;2024-01-10T11:49:12;170.23;;;69.33;;
21458;SDS011;10891;49.350;19.386;2024-01-10T11:51:41;159.77;;;67.87;;
21458;SDS011;10891;49.350;19.386;2024-01-10T11:54:09;174.97;;;69.57;;
21458;SDS011;10891;49.350;19.386;2024-01-10T11:56:37;232.73;;;89.83;;
21458;SDS011;10891;49.350;19.386;2024-01-10T11:59:06;211.80;;;81.90;;
21458;SDS011;10891;49.350;19.386;2024-01-10T12:01:35;181.60;;;70.40;;
21458;SDS011;10891;49.350;19.386;2024-01-10T12:04:03;157.67;;;61.50;;
21458;SDS011;10891;49.350;19.386;2024-01-10T12:06:32;135.37;;;55.27;;
21458;SDS011;10891;49.350;19.386;2024-01-10T12:08:59;157.47;;;61.57;;
21458;SDS011;10891;49.350;19.386;2024-01-10T12:11:33;151.83;;;56.80;;
21458;SDS011;10891;49.350;19.386;2024-01-10T12:14:00;157.43;;;60.77;;
21458;SDS011;10891;49.350;19.386;2024-01-10T12:16:28;162.30;;;67.23;;
21458;SDS011;10891;49.350;19.386;2024-01-10T12:18:55;149.53;;;59.77;;
21458;SDS011;10891;49.350;19.386;2024-01-10T12:21:23;117.07;;;48.43;;
21458;SDS011;10891;49.350;19.386;2024-01-10T12:23:51;141.17;;;56.00;;
21458;SDS011;10891;49.350;19.386;2024-01-10T12:26:19;132.17;;;50.63;;
21458;SDS011;10891;49.350;19.386;2024-01-10T12:28:53;128.30;;;51.53;;
21458;SDS011;10891;49.350;19.386;2024-01-10T12:31:20;141.07;;;54.13;;
21458;SDS011;10891;49.350;19.386;2024-01-10T12:33:48;128.10;;;49.93;;
21458;SDS011;10891;49.350;19.386;2024-01-10T12:36:16;152.17;;;57.30;;
21458;SDS011;10891;49.350;19.386;2024-01-10T12:38:45;152.10;;;55.57;;
21458;SDS011;10891;49.350;19.386;2024-01-10T12:41:14;197.17;;;86.17;;
21458;SDS011;10891;49.350;19.386;2024-01-10T12:43:42;448.80;;;167.70;;
21458;SDS011;10891;49.350;19.386;2024-01-10T12:46:10;284.27;;;113.97;;
21458;SDS011;10891;49.350;19.386;2024-01-10T12:48:37;217.17;;;80.63;;
21458;SDS011;10891;49.350;19.386;2024-01-10T12:51:06;206.50;;;88.93;;
21458;SDS011;10891;49.350;19.386;2024-01-10T12:53:34;221.07;;;89.43;;
21458;SDS011;10891;49.350;19.386;2024-01-10T12:56:01;182.47;;;73.00;;
21458;SDS011;10891;49.350;19.386;2024-01-10T12:58:30;188.57;;;70.80;;
21458;SDS011;10891;49.350;19.386;2024-01-10T13:00:57;162.83;;;65.27;;
21458;SDS011;10891;49.350;19.386;2024-01-10T13:03:24;154.70;;;60.87;;
21458;SDS011;10891;49.350;19.386;2024-01-10T13:05:52;182.60;;;68.33;;
21458;SDS011;10891;49.350;19.386;2024-01-10T13:08:19;180.03;;;69.33;;
21458;SDS011;10891;49.350;19.386;2024-01-10T13:10:46;170.60;;;67.20;;
21458;SDS011;10891;49.350;19.386;2024-01-10T13:13:14;156.17;;;62.47;;
21458;SDS011;10891;49.350;19.386;2024-01-10T13:15:44;162.17;;;62.43;;
21458;SDS011;10891;49.350;19.386;2024-01-10T13:18:11;145.40;;;61.33;;
21458;SDS011;10891;49.350;19.386;2024-01-10T13:20:39;135.20;;;52.07;;
21458;SDS011;10891;49.350;19.386;2024-01-10T13:23:06;136.60;;;55.47;;
21458;SDS011;10891;49.350;19.386;2024-01-10T13:25:34;165.40;;;58.93;;
21458;SDS011;10891;49.350;19.386;2024-01-10T13:28:02;146.10;;;53.87;;
21458;SDS011;10891;49.350;19.386;2024-01-10T13:30:29;179.17;;;65.97;;
21458;SDS011;10891;49.350;19.386;2024-01-10T13:32:58;106.47;;;42.40;;
21458;SDS011;10891;49.350;19.386;2024-01-10T13:35:25;152.13;;;59.30;;
21458;SDS011;10891;49.350;19.386;2024-01-10T13:37:52;142.63;;;60.50;;
21458;SDS011;10891;49.350;19.386;2024-01-10T13:40:19;234.37;;;76.03;;
21458;SDS011;10891;49.350;19.386;2024-01-10T13:42:49;178.53;;;55.87;;
21458;SDS011;10891;49.350;19.386;2024-01-10T13:45:16;203.67;;;74.90;;
21458;SDS011;10891;49.350;19.386;2024-01-10T13:47:44;206.37;;;75.33;;
21458;SDS011;10891;49.350;19.386;2024-01-10T13:50:12;253.10;;;91.90;;
21458;SDS011;10891;49.350;19.386;2024-01-10T13:52:39;180.77;;;73.97;;
21458;SDS011;10891;49.350;19.386;2024-01-10T13:55:07;245.53;;;91.20;;
21458;SDS011;10891;49.350;19.386;2024-01-10T13:57:34;167.73;;;66.50;;
21458;SDS011;10891;49.350;19.386;2024-01-10T14:00:02;171.97;;;69.73;;
21458;SDS011;10891;49.350;19.386;2024-01-10T14:02:31;229.40;;;88.07;;
21458;SDS011;10891;49.350;19.386;2024-01-10T14:05:00;179.30;;;73.40;;
21458;SDS011;10891;49.350;19.386;2024-01-10T14:07:32;197.93;;;75.03;;